createdAt,value
2019-05-09T00:00:23.223Z,11.60
2019-05-09T00:02:29.315Z,11.60
2019-05-09T00:04:30.679Z,11.60
2019-05-09T00:06:33.963Z,11.60
2019-05-09T00:08:35.339Z,11.60
2019-05-09T00:10:41.658Z,11.50
2019-05-09T00:12:40.037Z,11.40
2019-05-09T00:14:43.355Z,11.50
2019-05-09T00:16:44.664Z,11.50
2019-05-09T00:18:46.177Z,11.40
2019-05-09T00:20:55.480Z,11.30
2019-05-09T00:22:56.848Z,11.30
2019-05-09T00:24:58.256Z,11.30
2019-05-09T00:26:59.651Z,11.30
2019-05-09T00:29:03.810Z,11.20
2019-05-09T00:31:07.255Z,11.30
2019-05-09T00:33:08.659Z,11.20
2019-05-09T00:35:24.461Z,11.10
2019-05-09T00:37:44.368Z,11.10
2019-05-09T00:39:45.790Z,11.10
2019-05-09T00:41:47.157Z,11.10
2019-05-09T00:43:50.432Z,11.10
2019-05-09T00:46:04.233Z,11.10
2019-05-09T00:48:05.891Z,11.10
2019-05-09T00:50:07.289Z,11.20
2019-05-09T00:52:08.703Z,11.20
2019-05-09T00:54:10.327Z,11.10
2019-05-09T00:56:13.413Z,11.10
2019-05-09T00:58:15.013Z,11.20
2019-05-09T01:00:18.983Z,11.20
2019-05-09T01:02:20.398Z,11.20
2019-05-09T01:04:23.967Z,11.20
2019-05-09T01:06:25.057Z,11.20
2019-05-09T01:08:26.440Z,11.20
2019-05-09T01:10:27.805Z,11.20
2019-05-09T01:12:29.207Z,11.20
2019-05-09T01:14:30.578Z,11.20
2019-05-09T01:16:33.477Z,11.20
2019-05-09T01:18:35.162Z,11.20
2019-05-09T01:20:36.535Z,11.20
2019-05-09T01:22:37.916Z,11.20
2019-05-09T01:24:39.331Z,11.20
2019-05-09T01:26:40.704Z,11.30
2019-05-09T01:28:44.093Z,11.20
2019-05-09T01:30:45.387Z,11.30
2019-05-09T01:32:48.661Z,11.30
2019-05-09T01:34:50.044Z,11.30
2019-05-09T01:37:04.738Z,11.30
2019-05-09T01:39:06.129Z,11.30
2019-05-09T01:41:07.493Z,11.30
2019-05-09T01:43:08.903Z,11.30
2019-05-09T01:45:10.487Z,11.30
2019-05-09T01:47:13.716Z,11.30
2019-05-09T01:49:15.197Z,11.30
2019-05-09T01:51:16.615Z,11.30
2019-05-09T01:53:19.896Z,11.30
2019-05-09T01:55:23.573Z,11.20
2019-05-09T01:57:25.072Z,11.30
2019-05-09T01:59:26.467Z,11.30
2019-05-09T02:01:27.865Z,11.30
2019-05-09T02:03:29.247Z,11.30
2019-05-09T02:05:30.611Z,11.30
2019-05-09T02:07:33.221Z,11.30
2019-05-09T02:09:34.718Z,11.30
2019-05-09T02:11:42.429Z,11.20
2019-05-09T02:13:40.008Z,11.10
2019-05-09T02:15:49.236Z,11.10
2019-05-09T02:17:58.921Z,11.10
2019-05-09T02:19:55.850Z,11.00
2019-05-09T02:21:57.232Z,11.00
2019-05-09T02:23:58.639Z,11.00
2019-05-09T02:25:59.999Z,11.00
2019-05-09T02:28:03.364Z,11.00
2019-05-09T02:30:06.339Z,10.90
2019-05-09T02:32:07.780Z,10.90
2019-05-09T02:34:09.156Z,10.90
2019-05-09T02:36:10.578Z,10.90
2019-05-09T02:38:11.959Z,10.90
2019-05-09T02:40:13.512Z,11.00
2019-05-09T02:42:14.913Z,10.90
2019-05-09T02:44:19.324Z,11.00
2019-05-09T02:46:21.488Z,10.90
2019-05-09T02:48:22.990Z,11.00
2019-05-09T02:50:24.434Z,11.00
2019-05-09T02:52:28.436Z,11.00
2019-05-09T02:54:29.910Z,11.00
2019-05-09T02:56:31.629Z,11.00
2019-05-09T02:58:34.889Z,11.00
2019-05-09T03:00:39.641Z,11.00
2019-05-09T03:02:52.150Z,11.00
2019-05-09T03:04:53.784Z,11.00
2019-05-09T03:06:55.287Z,11.00
2019-05-09T03:08:59.369Z,11.00
2019-05-09T03:11:00.122Z,11.00
2019-05-09T03:13:01.528Z,11.00
2019-05-09T03:15:05.198Z,11.00
2019-05-09T03:17:08.931Z,11.00
2019-05-09T03:19:09.902Z,11.00
2019-05-09T03:21:18.915Z,10.90
2019-05-09T03:23:19.480Z,10.90
2019-05-09T03:25:21.091Z,10.90
2019-05-09T03:27:30.049Z,10.90
2019-05-09T03:29:33.329Z,10.90
2019-05-09T03:31:39.361Z,11.00
2019-05-09T03:33:40.871Z,11.00
2019-05-09T03:35:42.627Z,11.00
2019-05-09T03:37:48.018Z,11.00
2019-05-09T03:39:49.303Z,11.00
2019-05-09T03:41:50.665Z,11.00
2019-05-09T03:43:52.086Z,11.00
2019-05-09T03:46:07.884Z,11.00
2019-05-09T03:48:14.425Z,11.10
2019-05-09T03:50:17.693Z,11.10
2019-05-09T03:52:19.326Z,11.10
2019-05-09T03:54:20.721Z,11.10
2019-05-09T03:56:29.715Z,11.10
2019-05-09T03:58:31.108Z,11.10
2019-05-09T04:00:32.573Z,11.10
2019-05-09T04:02:33.934Z,11.00
2019-05-09T04:04:35.363Z,11.00
2019-05-09T04:06:39.070Z,11.00
2019-05-09T04:08:40.010Z,10.90
2019-05-09T04:10:41.420Z,10.90
2019-05-09T04:12:53.877Z,10.90
2019-05-09T04:14:48.023Z,10.90
2019-05-09T04:16:49.411Z,10.90
2019-05-09T04:18:50.767Z,10.90
2019-05-09T04:20:52.130Z,10.90
2019-05-09T04:22:53.600Z,10.90
2019-05-09T04:24:54.965Z,10.90
2019-05-09T04:26:58.223Z,10.90
2019-05-09T04:28:59.636Z,10.90
2019-05-09T04:31:00.987Z,10.80
2019-05-09T04:33:02.352Z,10.90
2019-05-09T04:35:04.300Z,10.90
2019-05-09T04:37:07.862Z,10.90
2019-05-09T04:39:12.609Z,10.90
2019-05-09T04:41:18.387Z,10.90
2019-05-09T04:43:26.684Z,10.90
2019-05-09T04:45:23.090Z,10.80
2019-05-09T04:47:24.530Z,10.80
2019-05-09T04:49:29.669Z,10.80
2019-05-09T04:51:29.521Z,10.90
2019-05-09T04:53:31.836Z,10.90
2019-05-09T04:55:35.103Z,10.90
2019-05-09T04:57:38.255Z,10.90
2019-05-09T04:59:39.830Z,10.90
2019-05-09T05:01:47.735Z,11.00
2019-05-09T05:03:50.798Z,11.00
2019-05-09T05:05:52.160Z,11.10
2019-05-09T05:07:53.605Z,11.10
2019-05-09T05:09:55.034Z,11.10
2019-05-09T05:11:57.917Z,11.10
2019-05-09T05:13:59.695Z,11.20
2019-05-09T05:16:01.123Z,11.10
2019-05-09T05:18:02.497Z,11.10
2019-05-09T05:20:08.384Z,11.10
2019-05-09T05:22:21.049Z,11.10
2019-05-09T05:24:27.833Z,11.20
2019-05-09T05:26:29.308Z,11.20
2019-05-09T05:28:30.699Z,11.30
2019-05-09T05:30:32.105Z,11.30
2019-05-09T05:32:41.291Z,11.30
2019-05-09T05:35:01.455Z,11.40
2019-05-09T05:37:02.822Z,11.40
2019-05-09T05:39:07.578Z,11.40
2019-05-09T05:41:08.986Z,11.40
2019-05-09T05:43:10.352Z,11.40
2019-05-09T05:45:12.057Z,11.50
2019-05-09T05:47:26.569Z,11.40
2019-05-09T05:49:28.061Z,11.50
2019-05-09T05:51:31.463Z,11.40
2019-05-09T05:53:33.092Z,11.50
2019-05-09T05:55:34.486Z,11.50
2019-05-09T05:57:38.360Z,11.50
2019-05-09T05:59:41.077Z,11.50
2019-05-09T06:01:42.762Z,11.50
2019-05-09T06:03:44.172Z,11.60
2019-05-09T06:05:49.345Z,11.60
2019-05-09T06:07:48.891Z,11.60
2019-05-09T06:09:50.255Z,11.60
2019-05-09T06:11:51.688Z,11.60
2019-05-09T06:13:57.543Z,11.60
2019-05-09T06:15:58.462Z,11.60
2019-05-09T06:17:59.664Z,11.60
2019-05-09T06:20:01.132Z,11.60
2019-05-09T06:22:02.506Z,11.60
2019-05-09T06:24:03.921Z,11.70
2019-05-09T06:26:09.369Z,11.70
2019-05-09T06:28:08.638Z,11.70
2019-05-09T06:30:14.050Z,11.80
2019-05-09T06:32:15.580Z,11.70
2019-05-09T06:34:18.702Z,11.80
2019-05-09T06:36:20.272Z,11.80
2019-05-09T06:38:21.704Z,11.90
2019-05-09T06:40:23.759Z,12.00
2019-05-09T06:42:25.537Z,12.00
2019-05-09T06:44:47.899Z,12.00
2019-05-09T06:46:51.232Z,12.00
2019-05-09T06:48:53.053Z,12.10
2019-05-09T06:50:54.474Z,12.20
2019-05-09T06:52:57.316Z,12.20
2019-05-09T06:54:58.992Z,12.30
2019-05-09T06:57:00.408Z,12.30
2019-05-09T06:59:01.835Z,12.30
2019-05-09T07:01:20.082Z,12.30
2019-05-09T07:03:32.219Z,12.30
2019-05-09T07:05:53.855Z,12.30
2019-05-09T07:07:57.624Z,12.30
2019-05-09T07:10:01.059Z,12.30
2019-05-09T07:12:02.422Z,12.40
2019-05-09T07:14:03.816Z,12.50
2019-05-09T07:16:05.201Z,12.70
2019-05-09T07:18:08.165Z,12.80
2019-05-09T07:20:09.680Z,12.90
2019-05-09T07:22:18.194Z,12.90
2019-05-09T07:24:19.999Z,12.90
2019-05-09T07:26:29.468Z,12.90
2019-05-09T07:28:30.877Z,12.80
2019-05-09T07:30:34.132Z,12.90
2019-05-09T07:32:43.246Z,13.00
2019-05-09T07:34:49.455Z,13.00
2019-05-09T07:36:50.824Z,13.00
2019-05-09T07:38:52.248Z,13.00
2019-05-09T07:40:53.883Z,13.10
2019-05-09T07:42:55.268Z,13.10
2019-05-09T07:44:59.068Z,13.10
2019-05-09T07:47:01.458Z,13.20
2019-05-09T07:49:02.920Z,13.30
2019-05-09T07:51:04.398Z,13.20
2019-05-09T07:53:08.583Z,13.20
2019-05-09T07:55:09.192Z,13.20
2019-05-09T07:57:10.555Z,13.10
2019-05-09T07:59:11.972Z,13.20
2019-05-09T08:01:13.587Z,13.20
2019-05-09T08:03:14.961Z,13.30
2019-05-09T08:05:27.983Z,13.50
2019-05-09T08:07:29.705Z,13.70
2019-05-09T08:09:31.055Z,13.80
2019-05-09T08:11:32.446Z,13.90
2019-05-09T08:13:33.838Z,14.00
2019-05-09T08:15:35.215Z,13.90
2019-05-09T08:17:38.181Z,13.90
2019-05-09T08:19:39.794Z,13.90
2019-05-09T08:21:41.156Z,14.00
2019-05-09T08:23:42.619Z,14.00
2019-05-09T08:25:44.015Z,13.90
2019-05-09T08:27:45.408Z,13.90
2019-05-09T08:29:47.842Z,13.90
2019-05-09T08:31:49.487Z,13.90
2019-05-09T08:33:50.900Z,13.90
2019-05-09T08:35:52.876Z,14.10
2019-05-09T08:37:54.343Z,14.20
2019-05-09T08:39:57.734Z,14.30
2019-05-09T08:41:59.468Z,14.60
2019-05-09T08:44:00.958Z,14.80
2019-05-09T08:46:02.453Z,15.10
2019-05-09T08:48:03.882Z,15.40
2019-05-09T08:50:17.646Z,16.00
2019-05-09T08:52:20.040Z,16.30
2019-05-09T08:54:40.428Z,16.40
2019-05-09T08:56:41.774Z,16.60
2019-05-09T08:58:43.163Z,16.50
2019-05-09T09:00:44.573Z,16.40
2019-05-09T09:02:48.018Z,16.20
2019-05-09T09:04:49.265Z,15.80
2019-05-09T09:06:50.628Z,15.70
2019-05-09T09:08:52.051Z,15.50
2019-05-09T09:10:53.385Z,15.40
2019-05-09T09:12:54.785Z,15.50
2019-05-09T09:14:58.434Z,15.40
2019-05-09T09:16:59.449Z,15.30
2019-05-09T09:19:00.878Z,15.20
2019-05-09T09:21:02.572Z,15.40
2019-05-09T09:23:03.947Z,15.40
2019-05-09T09:25:07.480Z,15.50
2019-05-09T09:27:08.807Z,15.60
2019-05-09T09:29:10.217Z,15.60
2019-05-09T09:31:11.585Z,15.60
2019-05-09T09:33:13.995Z,15.70
2019-05-09T09:35:15.475Z,15.70
2019-05-09T09:37:18.561Z,15.60
2019-05-09T09:39:20.136Z,15.50
2019-05-09T09:41:21.500Z,15.50
2019-05-09T09:43:22.855Z,15.40
2019-05-09T09:45:24.251Z,15.30
2019-05-09T09:47:25.638Z,15.30
2019-05-09T09:49:29.335Z,15.20
2019-05-09T09:51:30.714Z,15.30
2019-05-09T09:53:32.314Z,15.30
2019-05-09T09:55:33.684Z,15.40
2019-05-09T09:57:35.047Z,16.00
2019-05-09T09:59:53.598Z,16.40
2019-05-09T10:01:58.399Z,16.50
2019-05-09T10:04:16.571Z,16.40
2019-05-09T10:06:11.035Z,16.10
2019-05-09T10:08:14.135Z,15.90
2019-05-09T10:10:36.847Z,15.70
2019-05-09T10:12:44.288Z,15.50
2019-05-09T10:14:46.144Z,15.20
2019-05-09T10:16:49.475Z,15.10
2019-05-09T10:18:52.733Z,15.00
2019-05-09T10:20:58.738Z,15.10
2019-05-09T10:23:11.116Z,15.20
2019-05-09T10:25:03.999Z,15.70
2019-05-09T10:27:09.906Z,16.20
2019-05-09T10:29:11.411Z,16.70
2019-05-09T10:31:12.874Z,17.00
2019-05-09T10:33:14.340Z,17.20
2019-05-09T10:35:21.538Z,17.50
2019-05-09T10:37:22.897Z,17.50
2019-05-09T10:39:24.464Z,17.30
2019-05-09T10:41:25.888Z,17.10
2019-05-09T10:43:44.402Z,17.00
2019-05-09T10:46:04.252Z,16.80
2019-05-09T10:48:05.638Z,16.60
2019-05-09T10:50:08.517Z,16.40
2019-05-09T10:52:10.146Z,16.60
2019-05-09T10:54:12.593Z,16.90
2019-05-09T10:56:13.991Z,17.20
2019-05-09T10:58:15.372Z,17.60
2019-05-09T11:00:19.042Z,17.80
2019-05-09T11:02:20.442Z,17.80
2019-05-09T11:04:21.822Z,17.90
2019-05-09T11:06:23.177Z,18.30
2019-05-09T11:08:24.568Z,18.60
2019-05-09T11:10:30.114Z,18.60
2019-05-09T11:12:29.339Z,18.60
2019-05-09T11:14:36.777Z,18.40
2019-05-09T11:16:45.528Z,18.30
2019-05-09T11:18:37.307Z,18.40
2019-05-09T11:20:38.701Z,18.50
2019-05-09T11:22:40.161Z,18.50
2019-05-09T11:24:46.407Z,18.70
2019-05-09T11:26:47.954Z,18.70
2019-05-09T11:28:48.701Z,19.00
2019-05-09T11:30:50.099Z,19.20
2019-05-09T11:32:51.515Z,19.50
2019-05-09T11:34:53.094Z,19.80
2019-05-09T11:36:54.510Z,20.00
2019-05-09T11:38:59.859Z,20.30
2019-05-09T11:40:59.151Z,20.50
2019-05-09T11:43:00.551Z,20.50
2019-05-09T11:45:03.911Z,20.20
2019-05-09T11:47:05.327Z,20.10
2019-05-09T11:49:08.276Z,20.10
2019-05-09T11:51:10.019Z,20.40
2019-05-09T11:53:11.433Z,20.70
2019-05-09T11:55:28.627Z,20.40
2019-05-09T11:57:18.938Z,20.10
2019-05-09T11:59:19.789Z,19.70
2019-05-09T12:01:21.176Z,19.30
2019-05-09T12:03:22.543Z,19.00
2019-05-09T12:05:23.965Z,19.30
2019-05-09T12:07:25.329Z,19.50
2019-05-09T12:09:28.829Z,19.50
2019-05-09T12:11:30.039Z,19.30
2019-05-09T12:13:31.394Z,19.40
2019-05-09T12:15:32.894Z,19.60
2019-05-09T12:17:49.772Z,19.70
2019-05-09T12:19:38.169Z,19.80
2019-05-09T12:21:47.541Z,19.50
2019-05-09T12:23:43.035Z,19.20
2019-05-09T12:25:44.411Z,19.10
2019-05-09T12:27:48.520Z,18.90
2019-05-09T12:29:49.095Z,18.70
2019-05-09T12:31:50.454Z,18.50
2019-05-09T12:33:51.858Z,18.40
2019-05-09T12:35:53.270Z,18.50
2019-05-09T12:37:54.644Z,18.40
2019-05-09T12:39:58.385Z,18.50
2019-05-09T12:41:59.328Z,18.50
2019-05-09T12:44:00.819Z,18.60
2019-05-09T12:46:02.287Z,18.50
2019-05-09T12:48:10.225Z,18.60
2019-05-09T12:50:08.675Z,18.80
2019-05-09T12:52:10.270Z,19.00
2019-05-09T12:54:11.649Z,18.90
2019-05-09T12:56:13.041Z,18.90
2019-05-09T12:58:27.671Z,18.70
2019-05-09T13:00:29.546Z,18.70
2019-05-09T13:02:30.941Z,18.80
2019-05-09T13:04:32.338Z,18.80
2019-05-09T13:06:33.761Z,18.80
2019-05-09T13:08:35.150Z,18.60
2019-05-09T13:10:37.864Z,18.50
2019-05-09T13:12:39.451Z,18.40
2019-05-09T13:14:40.818Z,18.40
2019-05-09T13:16:49.736Z,18.30
2019-05-09T13:19:07.463Z,18.20
2019-05-09T13:21:08.849Z,18.30
2019-05-09T13:23:10.252Z,18.40
2019-05-09T13:25:11.636Z,18.40
2019-05-09T13:27:13.012Z,18.50
2019-05-09T13:29:14.393Z,18.40
2019-05-09T13:31:18.178Z,18.50
2019-05-09T13:33:19.162Z,18.40
2019-05-09T13:35:20.565Z,18.40
2019-05-09T13:37:21.975Z,18.30
2019-05-09T13:39:23.399Z,18.30
2019-05-09T13:41:24.761Z,18.40
2019-05-09T13:43:28.082Z,18.60
2019-05-09T13:45:29.429Z,18.90
2019-05-09T13:47:30.793Z,19.30
2019-05-09T13:49:32.167Z,19.40
2019-05-09T13:51:33.741Z,19.40
2019-05-09T13:53:35.167Z,19.50
2019-05-09T13:55:38.062Z,19.30
2019-05-09T13:57:39.805Z,19.20
2019-05-09T13:59:41.242Z,19.00
2019-05-09T14:01:42.612Z,18.80
2019-05-09T14:03:44.031Z,18.80
2019-05-09T14:05:47.931Z,18.70
2019-05-09T14:07:51.218Z,18.70
2019-05-09T14:09:52.001Z,18.60
2019-05-09T14:11:53.365Z,18.60
2019-05-09T14:13:54.789Z,18.60
2019-05-09T14:15:57.599Z,18.40
2019-05-09T14:17:59.267Z,18.40
2019-05-09T14:20:00.697Z,18.50
2019-05-09T14:22:02.413Z,18.60
2019-05-09T14:24:14.066Z,18.80
2019-05-09T14:26:09.371Z,19.20
2019-05-09T14:28:10.889Z,19.50
2019-05-09T14:30:12.435Z,19.70
2019-05-09T14:32:13.839Z,19.90
2019-05-09T14:34:15.190Z,19.80
2019-05-09T14:36:16.578Z,19.50
2019-05-09T14:38:18.542Z,19.10
2019-05-09T14:40:20.135Z,18.90
2019-05-09T14:42:21.535Z,18.80
2019-05-09T14:44:22.921Z,18.70
2019-05-09T14:46:24.285Z,18.80
2019-05-09T14:48:25.694Z,18.80
2019-05-09T14:50:28.519Z,18.90
2019-05-09T14:52:30.045Z,18.80
2019-05-09T14:54:31.461Z,18.90
2019-05-09T14:56:32.835Z,19.00
2019-05-09T14:58:34.241Z,19.10
2019-05-09T15:00:38.501Z,19.10
2019-05-09T15:02:39.139Z,19.20
2019-05-09T15:04:40.499Z,19.40
2019-05-09T15:06:41.927Z,19.60
2019-05-09T15:08:43.288Z,19.50
2019-05-09T15:10:44.689Z,19.50
2019-05-09T15:12:48.071Z,19.60
2019-05-09T15:14:49.355Z,19.60
2019-05-09T15:16:50.730Z,19.60
2019-05-09T15:18:52.237Z,19.70
2019-05-09T15:20:53.713Z,19.70
2019-05-09T15:22:55.123Z,19.50
2019-05-09T15:24:58.909Z,19.40
2019-05-09T15:26:59.804Z,19.30
2019-05-09T15:29:01.168Z,19.20
2019-05-09T15:31:02.601Z,19.10
2019-05-09T15:33:03.962Z,19.30
2019-05-09T15:35:08.684Z,19.40
2019-05-09T15:37:09.149Z,19.30
2019-05-09T15:39:10.513Z,19.30
2019-05-09T15:41:12.357Z,19.20
2019-05-09T15:43:13.883Z,19.20
2019-05-09T15:45:18.258Z,19.10
2019-05-09T15:47:24.124Z,19.20
2019-05-09T15:49:28.354Z,19.20
2019-05-09T15:51:32.029Z,19.20
2019-05-09T15:53:32.651Z,19.20
2019-05-09T15:55:34.184Z,19.20
2019-05-09T15:57:37.682Z,19.20
2019-05-09T15:59:39.136Z,19.10
2019-05-09T16:01:40.606Z,18.90
2019-05-09T16:03:42.139Z,18.90
2019-05-09T16:05:43.513Z,18.70
2019-05-09T16:07:44.943Z,18.50
2019-05-09T16:09:48.323Z,18.40
2019-05-09T16:11:49.598Z,18.50
2019-05-09T16:13:50.962Z,18.40
2019-05-09T16:15:52.346Z,18.30
2019-05-09T16:17:53.795Z,18.50
2019-05-09T16:19:57.174Z,18.60
2019-05-09T16:21:58.421Z,18.70
2019-05-09T16:23:59.817Z,18.80
2019-05-09T16:26:01.190Z,19.00
2019-05-09T16:28:02.938Z,19.00
2019-05-09T16:30:08.420Z,18.90
2019-05-09T16:32:10.534Z,18.70
2019-05-09T16:34:11.919Z,18.60
2019-05-09T16:36:13.461Z,18.40
2019-05-09T16:38:14.853Z,18.30
2019-05-09T16:40:16.242Z,18.10
2019-05-09T16:42:17.671Z,18.00
2019-05-09T16:44:19.036Z,17.90
2019-05-09T16:46:20.412Z,17.70
2019-05-09T16:48:21.807Z,17.70
2019-05-09T16:50:23.211Z,17.60
2019-05-09T16:52:24.638Z,17.70
2019-05-09T16:54:28.359Z,18.10
2019-05-09T16:56:29.855Z,18.50
2019-05-09T16:58:31.262Z,19.00
2019-05-09T17:00:48.277Z,19.20
2019-05-09T17:02:49.712Z,19.30
2019-05-09T17:04:51.123Z,19.20
2019-05-09T17:06:52.517Z,19.00
2019-05-09T17:08:53.962Z,18.80
2019-05-09T17:10:55.363Z,18.90
2019-05-09T17:12:58.234Z,18.70
2019-05-09T17:14:59.935Z,18.50
2019-05-09T17:17:01.314Z,18.20
2019-05-09T17:19:03.304Z,18.10
2019-05-09T17:21:24.171Z,18.00
2019-05-09T17:23:24.214Z,18.00
2019-05-09T17:25:28.012Z,18.00
2019-05-09T17:27:28.885Z,18.00
2019-05-09T17:29:30.285Z,17.90
2019-05-09T17:31:31.747Z,17.80
2019-05-09T17:33:33.104Z,17.70
2019-05-09T17:35:34.596Z,17.70
2019-05-09T17:37:38.023Z,17.60
2019-05-09T17:39:39.287Z,17.50
2019-05-09T17:41:40.708Z,17.50
2019-05-09T17:43:42.109Z,17.50
2019-05-09T17:45:43.869Z,17.50
2019-05-09T17:47:45.244Z,17.40
2019-05-09T17:49:48.219Z,17.40
2019-05-09T17:51:49.843Z,17.40
2019-05-09T17:53:52.172Z,17.40
2019-05-09T17:55:53.820Z,17.40
2019-05-09T17:57:55.341Z,17.40
2019-05-09T17:59:58.353Z,17.40
2019-05-09T18:01:59.979Z,17.30
2019-05-09T18:04:01.449Z,17.30
2019-05-09T18:06:03.815Z,17.30
2019-05-09T18:08:05.305Z,17.30
2019-05-09T18:10:07.708Z,17.20
2019-05-09T18:12:09.346Z,17.20
2019-05-09T18:14:10.730Z,17.20
2019-05-09T18:16:12.124Z,17.20
2019-05-09T18:18:13.502Z,17.20
2019-05-09T18:20:17.644Z,17.10
2019-05-09T18:22:19.363Z,17.10
2019-05-09T18:24:20.852Z,17.00
2019-05-09T18:26:22.295Z,17.00
2019-05-09T18:28:23.653Z,16.90
2019-05-09T18:30:27.362Z,16.90
2019-05-09T18:32:42.360Z,16.80
2019-05-09T18:34:43.886Z,16.80
2019-05-09T18:36:45.353Z,16.70
2019-05-09T18:38:48.038Z,16.70
2019-05-09T18:40:49.669Z,16.70
2019-05-09T18:42:51.154Z,16.60
2019-05-09T18:44:52.542Z,16.60
2019-05-09T18:46:54.771Z,16.60
2019-05-09T18:48:56.201Z,16.50
2019-05-09T18:50:57.553Z,16.40
2019-05-09T18:52:58.933Z,16.40
2019-05-09T18:55:00.357Z,16.30
2019-05-09T18:57:01.739Z,16.30
2019-05-09T18:59:03.191Z,16.20
2019-05-09T19:01:04.649Z,16.20
2019-05-09T19:03:06.014Z,16.10
2019-05-09T19:05:07.802Z,16.00
2019-05-09T19:07:21.845Z,16.00
2019-05-09T19:09:12.592Z,15.90
2019-05-09T19:11:14.012Z,15.90
2019-05-09T19:13:15.379Z,15.90
2019-05-09T19:15:22.857Z,15.90
2019-05-09T19:17:42.849Z,15.80
2019-05-09T19:19:46.122Z,15.80
2019-05-09T19:21:49.424Z,15.70
2019-05-09T19:23:50.827Z,15.50
2019-05-09T19:25:52.197Z,15.40
2019-05-09T19:27:53.615Z,15.10
2019-05-09T19:29:55.008Z,14.90
2019-05-09T19:31:56.367Z,14.70
2019-05-09T19:33:57.799Z,14.50
2019-05-09T19:35:59.165Z,14.20
2019-05-09T19:38:00.731Z,14.00
2019-05-09T19:40:05.142Z,13.90
2019-05-09T19:42:06.538Z,13.70
2019-05-09T19:44:08.029Z,13.70
2019-05-09T19:46:09.423Z,13.60
2019-05-09T19:48:10.845Z,13.50
2019-05-09T19:50:13.922Z,13.50
2019-05-09T19:52:15.489Z,13.50
2019-05-09T19:54:16.839Z,13.40
2019-05-09T19:56:18.287Z,13.40
2019-05-09T19:58:19.656Z,13.40
2019-05-09T20:00:21.331Z,13.30
2019-05-09T20:02:22.722Z,13.30
2019-05-09T20:04:24.096Z,13.30
2019-05-09T20:06:25.479Z,13.30
2019-05-09T20:08:26.880Z,13.30
2019-05-09T20:10:47.045Z,13.30
2019-05-09T20:13:02.215Z,13.30
2019-05-09T20:15:05.418Z,13.20
2019-05-09T20:17:06.795Z,13.00
2019-05-09T20:19:08.151Z,13.00
2019-05-09T20:21:09.594Z,13.00
2019-05-09T20:23:10.950Z,13.00
2019-05-09T20:25:13.313Z,12.90
2019-05-09T20:27:14.699Z,13.00
2019-05-09T20:29:16.086Z,12.90
2019-05-09T20:31:17.491Z,12.90
2019-05-09T20:33:18.857Z,12.90
2019-05-09T20:35:20.270Z,12.90
2019-05-09T20:37:21.703Z,12.90
2019-05-09T20:39:23.249Z,12.90
2019-05-09T20:41:24.609Z,12.90
2019-05-09T20:43:26.018Z,12.90
2019-05-09T20:45:27.471Z,12.90
2019-05-09T20:47:28.868Z,12.90
2019-05-09T20:49:30.268Z,12.90
2019-05-09T20:51:31.672Z,12.90
2019-05-09T20:53:33.183Z,13.00
2019-05-09T20:55:34.651Z,13.00
2019-05-09T20:57:36.020Z,13.00
2019-05-09T20:59:37.428Z,12.90
2019-05-09T21:01:38.822Z,12.90
2019-05-09T21:03:40.194Z,12.80
2019-05-09T21:05:41.589Z,12.80
2019-05-09T21:07:42.997Z,12.80
2019-05-09T21:09:44.378Z,12.80
2019-05-09T21:11:45.747Z,12.80
2019-05-09T21:13:48.759Z,12.80
2019-05-09T21:15:50.423Z,12.70
2019-05-09T21:17:51.857Z,12.70
2019-05-09T21:19:53.241Z,12.70
2019-05-09T21:21:54.793Z,12.70
2019-05-09T21:23:56.198Z,12.70
2019-05-09T21:25:57.561Z,12.70
2019-05-09T21:27:58.987Z,12.60
2019-05-09T21:30:00.477Z,12.70
2019-05-09T21:32:01.851Z,12.70
2019-05-09T21:34:03.247Z,12.60
2019-05-09T21:36:04.611Z,12.60
2019-05-09T21:38:06.028Z,12.50
2019-05-09T21:40:08.390Z,12.50
2019-05-09T21:42:09.891Z,12.50
2019-05-09T21:44:11.238Z,12.40
2019-05-09T21:46:12.602Z,12.40
2019-05-09T21:48:14.004Z,12.40
2019-05-09T21:50:15.805Z,12.40
2019-05-09T21:52:17.215Z,12.40
2019-05-09T21:54:18.592Z,12.40
2019-05-09T21:56:20.068Z,12.40
2019-05-09T21:58:21.473Z,12.40
2019-05-09T22:00:34.914Z,12.40
2019-05-09T22:02:36.549Z,12.40
2019-05-09T22:04:37.956Z,12.40
2019-05-09T22:06:39.419Z,12.40
2019-05-09T22:08:40.826Z,12.30
2019-05-09T22:10:42.199Z,12.30
2019-05-09T22:12:43.865Z,12.20
2019-05-09T22:14:45.368Z,12.10
2019-05-09T22:16:48.369Z,12.10
2019-05-09T22:18:49.734Z,12.10
2019-05-09T22:20:51.145Z,12.00
2019-05-09T22:22:52.531Z,12.00
2019-05-09T22:24:53.897Z,12.00
2019-05-09T22:26:55.404Z,12.00
2019-05-09T22:28:56.824Z,12.00
2019-05-09T22:30:58.188Z,11.90
2019-05-09T22:32:59.568Z,11.90
2019-05-09T22:35:01.692Z,12.00
2019-05-09T22:37:03.042Z,12.00
2019-05-09T22:39:06.204Z,12.00
2019-05-09T22:41:07.612Z,11.90
2019-05-09T22:43:09.111Z,12.00
2019-05-09T22:45:11.273Z,12.00
2019-05-09T22:47:12.698Z,11.90
2019-05-09T22:49:14.074Z,11.90
2019-05-09T22:51:15.452Z,11.90
2019-05-09T22:53:16.856Z,11.90
2019-05-09T22:55:18.209Z,11.80
2019-05-09T22:57:19.587Z,11.80
2019-05-09T22:59:20.983Z,11.80
2019-05-09T23:01:22.440Z,11.80
2019-05-09T23:03:23.800Z,11.80
2019-05-09T23:05:25.488Z,11.90
2019-05-09T23:07:26.861Z,11.80
2019-05-09T23:09:28.219Z,11.80
2019-05-09T23:11:29.619Z,11.80
2019-05-09T23:13:32.901Z,11.90
2019-05-09T23:15:34.309Z,11.80
2019-05-09T23:17:35.898Z,11.80
2019-05-09T23:19:37.256Z,11.80
2019-05-09T23:21:38.617Z,11.80
2019-05-09T23:23:41.227Z,11.80
2019-05-09T23:25:42.601Z,11.80
2019-05-09T23:27:43.952Z,11.80
2019-05-09T23:29:45.365Z,11.80
2019-05-09T23:32:05.206Z,11.80
2019-05-09T23:34:06.666Z,11.80
2019-05-09T23:36:08.066Z,11.80
2019-05-09T23:38:09.431Z,11.80
2019-05-09T23:40:11.025Z,11.80
2019-05-09T23:42:12.530Z,11.80
2019-05-09T23:44:14.242Z,11.80
2019-05-09T23:46:15.677Z,11.80
2019-05-09T23:48:17.054Z,11.80
2019-05-09T23:50:18.457Z,11.80
2019-05-09T23:52:19.815Z,11.70
2019-05-09T23:54:48.211Z,11.70
2019-05-09T23:57:01.927Z,11.70
2019-05-09T23:59:21.692Z,11.70
